sensor_id;sensor_type;location;lat;lon;timestamp;temperature;humidity
8420;DHT22;4247;48.550;8.822;2023-03-08T00:02:24;2.70;97.30
8420;DHT22;4247;48.550;8.822;2023-03-08T00:04:53;2.70;97.50
8420;DHT22;4247;48.550;8.822;2023-03-08T00:07:20;2.70;97.60
8420;DHT22;4247;48.550;8.822;2023-03-08T00:09:47;2.60;97.60
8420;DHT22;4247;48.550;8.822;2023-03-08T00:12:14;2.60;98.00
8420;DHT22;4247;48.550;8.822;2023-03-08T00:14:43;2.60;97.70
8420;DHT22;4247;48.550;8.822;2023-03-08T00:17:12;2.60;97.90
8420;DHT22;4247;48.550;8.822;2023-03-08T00:19:41;2.50;98.00
8420;DHT22;4247;48.550;8.822;2023-03-08T00:22:08;2.50;98.20
8420;DHT22;4247;48.550;8.822;2023-03-08T00:24:35;2.50;98.20
8420;DHT22;4247;48.550;8.822;2023-03-08T00:27:03;2.40;98.50
8420;DHT22;4247;48.550;8.822;2023-03-08T00:29:30;2.40;98.60
8420;DHT22;4247;48.550;8.822;2023-03-08T00:32:00;2.40;98.80
8420;DHT22;4247;48.550;8.822;2023-03-08T00:34:28;2.30;98.90
8420;DHT22;4247;48.550;8.822;2023-03-08T00:36:55;2.30;99.10
8420;DHT22;4247;48.550;8.822;2023-03-08T00:39:22;2.30;99.00
8420;DHT22;4247;48.550;8.822;2023-03-08T00:41:49;2.30;99.40
8420;DHT22;4247;48.550;8.822;2023-03-08T00:44:16;2.30;99.30
8420;DHT22;4247;48.550;8.822;2023-03-08T00:46:45;2.30;99.10
8420;DHT22;4247;48.550;8.822;2023-03-08T00:49:12;2.20;99.10
8420;DHT22;4247;48.550;8.822;2023-03-08T00:51:40;2.20;99.30
8420;DHT22;4247;48.550;8.822;2023-03-08T00:54:07;2.20;99.30
8420;DHT22;4247;48.550;8.822;2023-03-08T00:56:34;2.20;99.30
8420;DHT22;4247;48.550;8.822;2023-03-08T00:59:01;2.10;99.50
8420;DHT22;4247;48.550;8.822;2023-03-08T01:01:28;2.10;99.70
8420;DHT22;4247;48.550;8.822;2023-03-08T01:03:55;2.10;99.90
8420;DHT22;4247;48.550;8.822;2023-03-08T01:06:22;2.00;99.90
8420;DHT22;4247;48.550;8.822;2023-03-08T01:08:52;2.00;99.90
8420;DHT22;4247;48.550;8.822;2023-03-08T01:11:21;2.00;99.90
8420;DHT22;4247;48.550;8.822;2023-03-08T01:13:49;2.00;99.90
8420;DHT22;4247;48.550;8.822;2023-03-08T01:16:18;2.00;99.90
8420;DHT22;4247;48.550;8.822;2023-03-08T01:18:45;1.90;99.90
8420;DHT22;4247;48.550;8.822;2023-03-08T01:21:12;1.90;99.90
8420;DHT22;4247;48.550;8.822;2023-03-08T01:23:40;1.90;99.90
8420;DHT22;4247;48.550;8.822;2023-03-08T01:26:11;1.90;99.90
8420;DHT22;4247;48.550;8.822;2023-03-08T01:28:39;1.90;99.90
8420;DHT22;4247;48.550;8.822;2023-03-08T01:31:07;1.90;99.90
8420;DHT22;4247;48.550;8.822;2023-03-08T01:33:38;1.90;99.90
8420;DHT22;4247;48.550;8.822;2023-03-08T01:36:06;1.90;99.90
8420;DHT22;4247;48.550;8.822;2023-03-08T01:38:36;1.90;99.90
8420;DHT22;4247;48.550;8.822;2023-03-08T01:41:04;1.80;99.90
8420;DHT22;4247;48.550;8.822;2023-03-08T01:43:34;1.80;99.90
8420;DHT22;4247;48.550;8.822;2023-03-08T01:46:06;1.80;99.90
8420;DHT22;4247;48.550;8.822;2023-03-08T01:48:36;1.90;99.90
8420;DHT22;4247;48.550;8.822;2023-03-08T01:51:04;1.80;99.90
8420;DHT22;4247;48.550;8.822;2023-03-08T01:53:34;1.80;99.90
8420;DHT22;4247;48.550;8.822;2023-03-08T01:56:02;1.90;99.90
8420;DHT22;4247;48.550;8.822;2023-03-08T01:58:30;1.80;99.90
8420;DHT22;4247;48.550;8.822;2023-03-08T02:00:58;1.80;99.90
8420;DHT22;4247;48.550;8.822;2023-03-08T02:03:25;1.90;99.90
8420;DHT22;4247;48.550;8.822;2023-03-08T02:05:54;1.90;99.90
8420;DHT22;4247;48.550;8.822;2023-03-08T02:08:24;1.80;99.90
8420;DHT22;4247;48.550;8.822;2023-03-08T02:10:54;1.90;99.90
8420;DHT22;4247;48.550;8.822;2023-03-08T02:13:22;1.90;99.90
8420;DHT22;4247;48.550;8.822;2023-03-08T02:15:51;1.90;99.90
8420;DHT22;4247;48.550;8.822;2023-03-08T02:18:23;2.00;99.90
8420;DHT22;4247;48.550;8.822;2023-03-08T02:20:49;2.00;99.90
8420;DHT22;4247;48.550;8.822;2023-03-08T02:23:22;2.00;99.90
8420;DHT22;4247;48.550;8.822;2023-03-08T02:25:53;2.00;99.90
8420;DHT22;4247;48.550;8.822;2023-03-08T02:28:22;2.10;99.90
8420;DHT22;4247;48.550;8.822;2023-03-08T02:30:52;2.10;99.90
8420;DHT22;4247;48.550;8.822;2023-03-08T02:33:21;2.10;99.90
8420;DHT22;4247;48.550;8.822;2023-03-08T02:35:48;2.10;99.90
8420;DHT22;4247;48.550;8.822;2023-03-08T02:38:18;2.20;99.90
8420;DHT22;4247;48.550;8.822;2023-03-08T02:40:46;2.20;99.90
8420;DHT22;4247;48.550;8.822;2023-03-08T02:43:15;2.30;99.90
8420;DHT22;4247;48.550;8.822;2023-03-08T02:45:45;2.20;99.90
8420;DHT22;4247;48.550;8.822;2023-03-08T02:48:12;2.20;99.90
8420;DHT22;4247;48.550;8.822;2023-03-08T02:50:40;2.20;99.90
8420;DHT22;4247;48.550;8.822;2023-03-08T02:53:07;2.30;99.90
8420;DHT22;4247;48.550;8.822;2023-03-08T02:55:38;2.30;99.90
8420;DHT22;4247;48.550;8.822;2023-03-08T02:58:07;2.30;99.90
8420;DHT22;4247;48.550;8.822;2023-03-08T03:00:37;2.30;99.90
8420;DHT22;4247;48.550;8.822;2023-03-08T03:03:04;2.30;99.90
8420;DHT22;4247;48.550;8.822;2023-03-08T03:05:31;2.30;99.90
8420;DHT22;4247;48.550;8.822;2023-03-08T03:07:58;2.40;99.90
8420;DHT22;4247;48.550;8.822;2023-03-08T03:10:26;2.40;99.90
8420;DHT22;4247;48.550;8.822;2023-03-08T03:12:54;2.40;99.90
8420;DHT22;4247;48.550;8.822;2023-03-08T03:15:21;2.50;99.90
8420;DHT22;4247;48.550;8.822;2023-03-08T03:17:48;2.50;99.90
8420;DHT22;4247;48.550;8.822;2023-03-08T03:20:18;2.50;99.90
8420;DHT22;4247;48.550;8.822;2023-03-08T03:22:45;2.50;99.90
8420;DHT22;4247;48.550;8.822;2023-03-08T03:25:12;2.50;99.90
8420;DHT22;4247;48.550;8.822;2023-03-08T03:27:39;2.40;99.90
8420;DHT22;4247;48.550;8.822;2023-03-08T03:30:09;2.40;99.70
8420;DHT22;4247;48.550;8.822;2023-03-08T03:32:36;2.40;99.70
8420;DHT22;4247;48.550;8.822;2023-03-08T03:35:03;2.40;99.90
8420;DHT22;4247;48.550;8.822;2023-03-08T03:37:33;2.40;99.70
8420;DHT22;4247;48.550;8.822;2023-03-08T03:40:00;2.40;99.80
8420;DHT22;4247;48.550;8.822;2023-03-08T03:42:26;2.30;99.90
8420;DHT22;4247;48.550;8.822;2023-03-08T03:44:56;2.30;99.90
8420;DHT22;4247;48.550;8.822;2023-03-08T03:47:25;2.30;99.90
8420;DHT22;4247;48.550;8.822;2023-03-08T03:49:51;2.30;99.90
8420;DHT22;4247;48.550;8.822;2023-03-08T03:52:18;2.30;99.90
8420;DHT22;4247;48.550;8.822;2023-03-08T03:54:45;2.30;99.90
8420;DHT22;4247;48.550;8.822;2023-03-08T03:57:12;2.30;99.90
8420;DHT22;4247;48.550;8.822;2023-03-08T03:59:40;2.20;99.90
8420;DHT22;4247;48.550;8.822;2023-03-08T04:02:06;2.20;99.90
8420;DHT22;4247;48.550;8.822;2023-03-08T04:04:35;2.20;99.90
8420;DHT22;4247;48.550;8.822;2023-03-08T04:07:02;2.20;99.90
8420;DHT22;4247;48.550;8.822;2023-03-08T04:09:29;2.10;99.90
8420;DHT22;4247;48.550;8.822;2023-03-08T04:11:56;2.10;99.90
8420;DHT22;4247;48.550;8.822;2023-03-08T04:14:27;2.10;99.90
8420;DHT22;4247;48.550;8.822;2023-03-08T04:16:53;2.10;99.90
8420;DHT22;4247;48.550;8.822;2023-03-08T04:19:20;2.10;99.90
8420;DHT22;4247;48.550;8.822;2023-03-08T04:21:49;2.10;99.90
8420;DHT22;4247;48.550;8.822;2023-03-08T04:24:16;2.10;99.90
8420;DHT22;4247;48.550;8.822;2023-03-08T04:26:42;2.20;99.90
8420;DHT22;4247;48.550;8.822;2023-03-08T04:29:09;2.20;99.90
8420;DHT22;4247;48.550;8.822;2023-03-08T04:31:36;2.20;99.90
8420;DHT22;4247;48.550;8.822;2023-03-08T04:34:03;2.30;99.90
8420;DHT22;4247;48.550;8.822;2023-03-08T04:36:30;2.30;99.90
8420;DHT22;4247;48.550;8.822;2023-03-08T04:38:59;2.30;99.90
8420;DHT22;4247;48.550;8.822;2023-03-08T04:41:29;2.30;99.90
8420;DHT22;4247;48.550;8.822;2023-03-08T04:43:56;2.40;99.90
8420;DHT22;4247;48.550;8.822;2023-03-08T04:46:27;2.40;99.90
8420;DHT22;4247;48.550;8.822;2023-03-08T04:48:54;2.40;99.90
8420;DHT22;4247;48.550;8.822;2023-03-08T04:51:22;2.40;99.90
8420;DHT22;4247;48.550;8.822;2023-03-08T04:53:49;2.40;99.90
8420;DHT22;4247;48.550;8.822;2023-03-08T04:56:20;2.40;99.90
8420;DHT22;4247;48.550;8.822;2023-03-08T04:58:47;2.50;99.90
8420;DHT22;4247;48.550;8.822;2023-03-08T05:01:16;2.50;99.90
8420;DHT22;4247;48.550;8.822;2023-03-08T05:03:44;2.50;99.90
8420;DHT22;4247;48.550;8.822;2023-03-08T05:06:14;2.50;99.90
8420;DHT22;4247;48.550;8.822;2023-03-08T05:08:41;2.60;99.90
8420;DHT22;4247;48.550;8.822;2023-03-08T05:11:09;2.60;99.90
8420;DHT22;4247;48.550;8.822;2023-03-08T05:13:41;2.60;99.90
8420;DHT22;4247;48.550;8.822;2023-03-08T05:16:11;2.60;99.90
8420;DHT22;4247;48.550;8.822;2023-03-08T05:18:38;2.60;99.90
8420;DHT22;4247;48.550;8.822;2023-03-08T05:21:07;2.60;99.90
8420;DHT22;4247;48.550;8.822;2023-03-08T05:23:38;2.60;99.90
8420;DHT22;4247;48.550;8.822;2023-03-08T05:26:06;2.70;99.90
8420;DHT22;4247;48.550;8.822;2023-03-08T05:28:34;2.80;99.90
8420;DHT22;4247;48.550;8.822;2023-03-08T05:31:06;2.70;99.90
8420;DHT22;4247;48.550;8.822;2023-03-08T05:33:34;2.70;99.90
8420;DHT22;4247;48.550;8.822;2023-03-08T05:36:01;2.70;99.90
8420;DHT22;4247;48.550;8.822;2023-03-08T05:38:29;2.80;99.90
8420;DHT22;4247;48.550;8.822;2023-03-08T05:40:59;2.80;99.90
8420;DHT22;4247;48.550;8.822;2023-03-08T05:43:27;2.80;99.90
8420;DHT22;4247;48.550;8.822;2023-03-08T05:45:56;2.80;99.90
8420;DHT22;4247;48.550;8.822;2023-03-08T05:48:25;2.80;99.90
8420;DHT22;4247;48.550;8.822;2023-03-08T05:50:52;2.80;99.90
8420;DHT22;4247;48.550;8.822;2023-03-08T05:53:20;2.80;99.90
8420;DHT22;4247;48.550;8.822;2023-03-08T05:55:50;2.80;99.90
8420;DHT22;4247;48.550;8.822;2023-03-08T05:58:17;2.80;99.90
8420;DHT22;4247;48.550;8.822;2023-03-08T06:00:44;2.80;99.90
8420;DHT22;4247;48.550;8.822;2023-03-08T06:03:11;2.80;99.90
8420;DHT22;4247;48.550;8.822;2023-03-08T06:05:39;2.90;99.90
8420;DHT22;4247;48.550;8.822;2023-03-08T06:08:09;2.90;99.90
8420;DHT22;4247;48.550;8.822;2023-03-08T06:10:36;2.90;99.90
8420;DHT22;4247;48.550;8.822;2023-03-08T06:13:03;2.90;99.90
8420;DHT22;4247;48.550;8.822;2023-03-08T06:15:30;2.90;99.90
8420;DHT22;4247;48.550;8.822;2023-03-08T06:17:57;2.90;99.90
8420;DHT22;4247;48.550;8.822;2023-03-08T06:20:24;3.00;99.90
8420;DHT22;4247;48.550;8.822;2023-03-08T06:22:52;3.00;99.90
8420;DHT22;4247;48.550;8.822;2023-03-08T06:25:19;3.00;99.90
8420;DHT22;4247;48.550;8.822;2023-03-08T06:27:46;3.10;99.90
8420;DHT22;4247;48.550;8.822;2023-03-08T06:30:14;3.10;99.90
8420;DHT22;4247;48.550;8.822;2023-03-08T06:32:41;3.10;99.90
8420;DHT22;4247;48.550;8.822;2023-03-08T06:35:09;3.20;99.90
8420;DHT22;4247;48.550;8.822;2023-03-08T06:37:36;3.20;99.90
8420;DHT22;4247;48.550;8.822;2023-03-08T06:40:05;3.20;99.90
8420;DHT22;4247;48.550;8.822;2023-03-08T06:42:36;3.30;99.90
8420;DHT22;4247;48.550;8.822;2023-03-08T06:45:04;3.30;99.90
8420;DHT22;4247;48.550;8.822;2023-03-08T06:47:33;3.40;99.90
8420;DHT22;4247;48.550;8.822;2023-03-08T06:50:00;3.50;99.90
8420;DHT22;4247;48.550;8.822;2023-03-08T06:52:26;3.50;99.90
8420;DHT22;4247;48.550;8.822;2023-03-08T06:55:02;3.50;99.90
8420;DHT22;4247;48.550;8.822;2023-03-08T06:57:30;3.50;99.90
8420;DHT22;4247;48.550;8.822;2023-03-08T07:00:00;3.50;99.90
8420;DHT22;4247;48.550;8.822;2023-03-08T07:02:28;3.50;99.90
8420;DHT22;4247;48.550;8.822;2023-03-08T07:04:55;3.50;99.90
8420;DHT22;4247;48.550;8.822;2023-03-08T07:07:22;3.60;99.90
8420;DHT22;4247;48.550;8.822;2023-03-08T07:09:49;3.60;99.90
8420;DHT22;4247;48.550;8.822;2023-03-08T07:12:16;3.60;99.90
8420;DHT22;4247;48.550;8.822;2023-03-08T07:14:47;3.60;99.90
8420;DHT22;4247;48.550;8.822;2023-03-08T07:17:14;3.70;99.90
8420;DHT22;4247;48.550;8.822;2023-03-08T07:19:41;3.70;99.90
8420;DHT22;4247;48.550;8.822;2023-03-08T07:22:08;3.70;99.90
8420;DHT22;4247;48.550;8.822;2023-03-08T07:24:38;3.80;99.90
8420;DHT22;4247;48.550;8.822;2023-03-08T07:27:05;3.80;99.90
8420;DHT22;4247;48.550;8.822;2023-03-08T07:29:32;3.80;99.90
8420;DHT22;4247;48.550;8.822;2023-03-08T07:32:00;3.90;99.90
8420;DHT22;4247;48.550;8.822;2023-03-08T07:34:27;3.90;99.90
8420;DHT22;4247;48.550;8.822;2023-03-08T07:36:54;3.90;99.90
8420;DHT22;4247;48.550;8.822;2023-03-08T07:39:23;3.90;99.90
8420;DHT22;4247;48.550;8.822;2023-03-08T07:41:50;4.00;99.90
8420;DHT22;4247;48.550;8.822;2023-03-08T07:44:17;4.10;99.90
8420;DHT22;4247;48.550;8.822;2023-03-08T07:46:45;4.10;99.90
8420;DHT22;4247;48.550;8.822;2023-03-08T07:49:13;4.20;99.90
8420;DHT22;4247;48.550;8.822;2023-03-08T07:51:40;4.30;99.90
8420;DHT22;4247;48.550;8.822;2023-03-08T07:54:09;4.30;99.90
8420;DHT22;4247;48.550;8.822;2023-03-08T07:56:37;4.30;99.90
8420;DHT22;4247;48.550;8.822;2023-03-08T07:59:04;4.40;99.90
8420;DHT22;4247;48.550;8.822;2023-03-08T08:01:31;4.40;99.90
8420;DHT22;4247;48.550;8.822;2023-03-08T08:03:58;4.50;99.90
8420;DHT22;4247;48.550;8.822;2023-03-08T08:06:27;4.50;99.90
8420;DHT22;4247;48.550;8.822;2023-03-08T08:08:54;4.60;99.90
8420;DHT22;4247;48.550;8.822;2023-03-08T08:11:23;4.60;99.90
8420;DHT22;4247;48.550;8.822;2023-03-08T08:13:50;4.70;99.90
8420;DHT22;4247;48.550;8.822;2023-03-08T08:16:18;4.80;99.90
8420;DHT22;4247;48.550;8.822;2023-03-08T08:18:45;4.80;99.90
8420;DHT22;4247;48.550;8.822;2023-03-08T08:21:14;4.90;99.90
8420;DHT22;4247;48.550;8.822;2023-03-08T08:23:46;5.00;99.90
8420;DHT22;4247;48.550;8.822;2023-03-08T08:26:16;5.10;99.90
8420;DHT22;4247;48.550;8.822;2023-03-08T08:28:44;5.20;99.90
8420;DHT22;4247;48.550;8.822;2023-03-08T08:31:13;5.20;99.90
8420;DHT22;4247;48.550;8.822;2023-03-08T08:33:40;5.20;99.90
8420;DHT22;4247;48.550;8.822;2023-03-08T08:36:10;5.30;99.90
8420;DHT22;4247;48.550;8.822;2023-03-08T08:38:37;5.30;99.90
8420;DHT22;4247;48.550;8.822;2023-03-08T08:41:11;5.40;99.90
8420;DHT22;4247;48.550;8.822;2023-03-08T08:43:43;5.50;99.90
8420;DHT22;4247;48.550;8.822;2023-03-08T08:46:11;5.70;99.90
8420;DHT22;4247;48.550;8.822;2023-03-08T08:48:40;5.80;99.90
8420;DHT22;4247;48.550;8.822;2023-03-08T08:51:10;5.80;99.90
8420;DHT22;4247;48.550;8.822;2023-03-08T08:53:38;5.90;99.90
8420;DHT22;4247;48.550;8.822;2023-03-08T08:56:13;5.80;99.90
8420;DHT22;4247;48.550;8.822;2023-03-08T08:58:41;5.90;99.90
8420;DHT22;4247;48.550;8.822;2023-03-08T09:01:15;6.00;99.90
8420;DHT22;4247;48.550;8.822;2023-03-08T09:03:43;6.00;99.90
8420;DHT22;4247;48.550;8.822;2023-03-08T09:06:12;6.00;99.90
8420;DHT22;4247;48.550;8.822;2023-03-08T09:08:39;6.00;99.90
8420;DHT22;4247;48.550;8.822;2023-03-08T09:11:08;6.10;99.90
8420;DHT22;4247;48.550;8.822;2023-03-08T09:13:37;6.10;99.90
8420;DHT22;4247;48.550;8.822;2023-03-08T09:16:06;6.10;99.90
8420;DHT22;4247;48.550;8.822;2023-03-08T09:18:33;6.10;99.90
8420;DHT22;4247;48.550;8.822;2023-03-08T09:21:00;6.10;99.90
8420;DHT22;4247;48.550;8.822;2023-03-08T09:23:33;6.10;99.90
8420;DHT22;4247;48.550;8.822;2023-03-08T09:26:00;6.20;99.90
8420;DHT22;4247;48.550;8.822;2023-03-08T09:28:29;6.30;99.90
8420;DHT22;4247;48.550;8.822;2023-03-08T09:30:57;6.30;99.90
8420;DHT22;4247;48.550;8.822;2023-03-08T09:33:25;6.40;99.90
8420;DHT22;4247;48.550;8.822;2023-03-08T09:35:57;6.50;99.90
8420;DHT22;4247;48.550;8.822;2023-03-08T09:38:25;6.50;99.90
8420;DHT22;4247;48.550;8.822;2023-03-08T09:41:00;6.60;99.90
8420;DHT22;4247;48.550;8.822;2023-03-08T09:43:41;6.70;99.90
8420;DHT22;4247;48.550;8.822;2023-03-08T09:46:13;6.80;99.90
8420;DHT22;4247;48.550;8.822;2023-03-08T09:48:46;6.90;99.90
8420;DHT22;4247;48.550;8.822;2023-03-08T09:51:18;6.90;99.90
8420;DHT22;4247;48.550;8.822;2023-03-08T09:53:49;7.10;99.90
8420;DHT22;4247;48.550;8.822;2023-03-08T09:56:24;7.10;99.90
8420;DHT22;4247;48.550;8.822;2023-03-08T09:58:58;7.10;99.90
8420;DHT22;4247;48.550;8.822;2023-03-08T10:01:37;7.30;99.90
8420;DHT22;4247;48.550;8.822;2023-03-08T10:04:20;7.40;99.90
8420;DHT22;4247;48.550;8.822;2023-03-08T10:07:19;7.30;99.90
8420;DHT22;4247;48.550;8.822;2023-03-08T10:10:12;7.30;99.90
8420;DHT22;4247;48.550;8.822;2023-03-08T10:12:51;7.20;99.90
8420;DHT22;4247;48.550;8.822;2023-03-08T10:15:23;7.20;99.90
8420;DHT22;4247;48.550;8.822;2023-03-08T10:17:55;7.20;99.90
8420;DHT22;4247;48.550;8.822;2023-03-08T10:20:24;7.30;99.90
8420;DHT22;4247;48.550;8.822;2023-03-08T10:22:56;7.30;99.90
8420;DHT22;4247;48.550;8.822;2023-03-08T10:25:25;7.30;99.90
8420;DHT22;4247;48.550;8.822;2023-03-08T10:27:56;7.40;99.90
8420;DHT22;4247;48.550;8.822;2023-03-08T10:30:25;7.50;99.90
8420;DHT22;4247;48.550;8.822;2023-03-08T10:32:58;7.60;99.90
8420;DHT22;4247;48.550;8.822;2023-03-08T10:35:31;7.80;99.90
8420;DHT22;4247;48.550;8.822;2023-03-08T10:38:02;7.90;99.90
8420;DHT22;4247;48.550;8.822;2023-03-08T10:40:30;8.10;99.90
8420;DHT22;4247;48.550;8.822;2023-03-08T10:43:02;8.20;99.90
8420;DHT22;4247;48.550;8.822;2023-03-08T10:45:32;8.40;99.90
8420;DHT22;4247;48.550;8.822;2023-03-08T10:48:02;8.50;99.90
8420;DHT22;4247;48.550;8.822;2023-03-08T10:50:30;8.70;99.90
8420;DHT22;4247;48.550;8.822;2023-03-08T10:53:08;8.90;99.90
8420;DHT22;4247;48.550;8.822;2023-03-08T10:55:42;8.90;99.90
8420;DHT22;4247;48.550;8.822;2023-03-08T10:58:26;9.00;99.90
8420;DHT22;4247;48.550;8.822;2023-03-08T11:00:57;9.20;99.90
8420;DHT22;4247;48.550;8.822;2023-03-08T11:03:26;9.30;99.90
8420;DHT22;4247;48.550;8.822;2023-03-08T11:05:58;9.50;99.90
8420;DHT22;4247;48.550;8.822;2023-03-08T11:08:28;9.60;99.90
8420;DHT22;4247;48.550;8.822;2023-03-08T11:11:03;9.80;99.90
8420;DHT22;4247;48.550;8.822;2023-03-08T11:13:32;9.90;99.90
8420;DHT22;4247;48.550;8.822;2023-03-08T11:16:27;10.00;99.90
8420;DHT22;4247;48.550;8.822;2023-03-08T11:19:02;10.10;99.90
8420;DHT22;4247;48.550;8.822;2023-03-08T11:21:38;10.10;99.90
8420;DHT22;4247;48.550;8.822;2023-03-08T11:24:23;10.10;99.90
8420;DHT22;4247;48.550;8.822;2023-03-08T11:27:10;10.30;99.90
8420;DHT22;4247;48.550;8.822;2023-03-08T11:29:57;10.30;99.90
8420;DHT22;4247;48.550;8.822;2023-03-08T11:32:38;10.40;99.90
8420;DHT22;4247;48.550;8.822;2023-03-08T11:35:14;10.50;99.90
8420;DHT22;4247;48.550;8.822;2023-03-08T11:37:55;10.60;99.90
8420;DHT22;4247;48.550;8.822;2023-03-08T11:40:28;10.70;99.90
8420;DHT22;4247;48.550;8.822;2023-03-08T11:43:16;10.80;99.90
8420;DHT22;4247;48.550;8.822;2023-03-08T11:45:50;10.80;99.90
8420;DHT22;4247;48.550;8.822;2023-03-08T11:48:40;10.90;99.90
8420;DHT22;4247;48.550;8.822;2023-03-08T11:51:16;10.90;99.90
8420;DHT22;4247;48.550;8.822;2023-03-08T11:53:55;10.90;99.90
8420;DHT22;4247;48.550;8.822;2023-03-08T11:56:46;11.00;99.90
8420;DHT22;4247;48.550;8.822;2023-03-08T11:59:20;11.10;99.90
8420;DHT22;4247;48.550;8.822;2023-03-08T12:01:53;11.10;99.90
8420;DHT22;4247;48.550;8.822;2023-03-08T12:04:27;11.00;99.90
8420;DHT22;4247;48.550;8.822;2023-03-08T12:06:59;11.10;99.90
8420;DHT22;4247;48.550;8.822;2023-03-08T12:09:33;11.10;99.90
8420;DHT22;4247;48.550;8.822;2023-03-08T12:12:05;11.10;99.90
8420;DHT22;4247;48.550;8.822;2023-03-08T12:14:38;11.10;99.90
8420;DHT22;4247;48.550;8.822;2023-03-08T12:17:12;11.20;99.90
8420;DHT22;4247;48.550;8.822;2023-03-08T12:19:43;11.20;99.90
8420;DHT22;4247;48.550;8.822;2023-03-08T12:22:29;11.30;99.90
8420;DHT22;4247;48.550;8.822;2023-03-08T12:25:07;11.40;99.90
8420;DHT22;4247;48.550;8.822;2023-03-08T12:27:39;11.40;99.90
8420;DHT22;4247;48.550;8.822;2023-03-08T12:30:18;11.50;99.90
8420;DHT22;4247;48.550;8.822;2023-03-08T12:32:49;11.50;99.90
8420;DHT22;4247;48.550;8.822;2023-03-08T12:35:27;11.60;99.90
8420;DHT22;4247;48.550;8.822;2023-03-08T12:37:58;11.70;99.90
8420;DHT22;4247;48.550;8.822;2023-03-08T12:40:34;11.70;99.90
8420;DHT22;4247;48.550;8.822;2023-03-08T12:43:08;11.70;99.90
8420;DHT22;4247;48.550;8.822;2023-03-08T12:45:35;11.60;99.90
8420;DHT22;4247;48.550;8.822;2023-03-08T12:48:19;11.50;99.90
8420;DHT22;4247;48.550;8.822;2023-03-08T12:50:56;11.50;99.90
8420;DHT22;4247;48.550;8.822;2023-03-08T12:56:22;11.50;99.90
8420;DHT22;4247;48.550;8.822;2023-03-08T12:58:52;11.50;99.90
8420;DHT22;4247;48.550;8.822;2023-03-08T13:01:31;11.50;99.90
8420;DHT22;4247;48.550;8.822;2023-03-08T13:04:00;11.50;99.90
8420;DHT22;4247;48.550;8.822;2023-03-08T13:09:35;11.50;99.90
8420;DHT22;4247;48.550;8.822;2023-03-08T13:12:18;11.50;99.90
8420;DHT22;4247;48.550;8.822;2023-03-08T13:14:59;11.50;99.90
8420;DHT22;4247;48.550;8.822;2023-03-08T13:17:35;11.50;99.90
8420;DHT22;4247;48.550;8.822;2023-03-08T13:20:11;11.50;99.90
8420;DHT22;4247;48.550;8.822;2023-03-08T13:25:43;11.70;99.90
8420;DHT22;4247;48.550;8.822;2023-03-08T13:28:16;11.70;99.90
8420;DHT22;4247;48.550;8.822;2023-03-08T13:30:46;11.90;99.90
8420;DHT22;4247;48.550;8.822;2023-03-08T13:33:18;11.90;99.90
8420;DHT22;4247;48.550;8.822;2023-03-08T13:35:57;11.90;99.90
8420;DHT22;4247;48.550;8.822;2023-03-08T13:38:26;11.90;99.90
8420;DHT22;4247;48.550;8.822;2023-03-08T13:40:56;12.00;99.90
8420;DHT22;4247;48.550;8.822;2023-03-08T13:43:25;12.00;99.90
8420;DHT22;4247;48.550;8.822;2023-03-08T13:45:54;11.90;99.90
8420;DHT22;4247;48.550;8.822;2023-03-08T13:48:32;11.90;99.90
8420;DHT22;4247;48.550;8.822;2023-03-08T13:50:59;11.90;99.90
8420;DHT22;4247;48.550;8.822;2023-03-08T13:53:30;11.80;99.90
8420;DHT22;4247;48.550;8.822;2023-03-08T13:56:02;11.80;99.90
8420;DHT22;4247;48.550;8.822;2023-03-08T13:58:32;11.70;99.90
8420;DHT22;4247;48.550;8.822;2023-03-08T14:01:09;11.60;99.90
8420;DHT22;4247;48.550;8.822;2023-03-08T14:03:36;11.70;99.90
8420;DHT22;4247;48.550;8.822;2023-03-08T14:06:03;11.70;99.90
8420;DHT22;4247;48.550;8.822;2023-03-08T14:08:40;11.70;99.90
8420;DHT22;4247;48.550;8.822;2023-03-08T14:11:14;11.70;99.90
8420;DHT22;4247;48.550;8.822;2023-03-08T14:13:45;11.70;99.90
8420;DHT22;4247;48.550;8.822;2023-03-08T14:16:23;11.70;99.90
8420;DHT22;4247;48.550;8.822;2023-03-08T14:18:53;11.70;99.90
8420;DHT22;4247;48.550;8.822;2023-03-08T14:21:22;11.60;99.90
8420;DHT22;4247;48.550;8.822;2023-03-08T14:23:51;11.60;99.90
8420;DHT22;4247;48.550;8.822;2023-03-08T14:26:29;11.60;99.90
8420;DHT22;4247;48.550;8.822;2023-03-08T14:29:17;11.50;99.90
8420;DHT22;4247;48.550;8.822;2023-03-08T14:32:02;11.40;99.90
8420;DHT22;4247;48.550;8.822;2023-03-08T14:34:31;11.30;99.90
8420;DHT22;4247;48.550;8.822;2023-03-08T14:37:04;11.30;99.90
8420;DHT22;4247;48.550;8.822;2023-03-08T14:39:33;11.30;99.90
8420;DHT22;4247;48.550;8.822;2023-03-08T14:42:16;11.30;99.90
8420;DHT22;4247;48.550;8.822;2023-03-08T14:44:49;11.30;99.90
8420;DHT22;4247;48.550;8.822;2023-03-08T14:47:21;11.40;99.90
8420;DHT22;4247;48.550;8.822;2023-03-08T14:49:54;11.40;99.90
8420;DHT22;4247;48.550;8.822;2023-03-08T14:52:22;11.40;99.90
8420;DHT22;4247;48.550;8.822;2023-03-08T14:54:49;11.40;99.90
8420;DHT22;4247;48.550;8.822;2023-03-08T14:57:19;11.40;99.90
8420;DHT22;4247;48.550;8.822;2023-03-08T14:59:47;11.40;99.90
8420;DHT22;4247;48.550;8.822;2023-03-08T15:02:15;11.40;99.90
8420;DHT22;4247;48.550;8.822;2023-03-08T15:04:44;11.30;99.90
8420;DHT22;4247;48.550;8.822;2023-03-08T15:07:16;11.40;99.90
8420;DHT22;4247;48.550;8.822;2023-03-08T15:09:45;11.30;99.90
8420;DHT22;4247;48.550;8.822;2023-03-08T15:12:12;11.30;99.90
8420;DHT22;4247;48.550;8.822;2023-03-08T15:14:44;11.30;99.90
8420;DHT22;4247;48.550;8.822;2023-03-08T15:17:13;11.30;99.90
8420;DHT22;4247;48.550;8.822;2023-03-08T15:19:40;11.20;99.90
8420;DHT22;4247;48.550;8.822;2023-03-08T15:22:09;11.20;99.90
8420;DHT22;4247;48.550;8.822;2023-03-08T15:24:38;11.20;99.90
8420;DHT22;4247;48.550;8.822;2023-03-08T15:27:05;11.10;99.90
8420;DHT22;4247;48.550;8.822;2023-03-08T15:29:33;11.10;99.90
8420;DHT22;4247;48.550;8.822;2023-03-08T15:32:06;11.10;99.90
8420;DHT22;4247;48.550;8.822;2023-03-08T15:34:33;11.10;99.90
8420;DHT22;4247;48.550;8.822;2023-03-08T15:37:00;11.10;99.90
8420;DHT22;4247;48.550;8.822;2023-03-08T15:39:27;11.10;99.90
8420;DHT22;4247;48.550;8.822;2023-03-08T15:41:54;11.20;99.90
8420;DHT22;4247;48.550;8.822;2023-03-08T15:44:21;11.10;99.90
8420;DHT22;4247;48.550;8.822;2023-03-08T15:46:51;11.20;99.90
8420;DHT22;4247;48.550;8.822;2023-03-08T15:49:20;11.20;99.90
8420;DHT22;4247;48.550;8.822;2023-03-08T15:51:46;11.20;99.90
8420;DHT22;4247;48.550;8.822;2023-03-08T15:54:13;11.20;99.90
8420;DHT22;4247;48.550;8.822;2023-03-08T15:56:40;11.20;99.90
8420;DHT22;4247;48.550;8.822;2023-03-08T15:59:10;11.20;99.90
8420;DHT22;4247;48.550;8.822;2023-03-08T16:01:37;11.20;99.90
8420;DHT22;4247;48.550;8.822;2023-03-08T16:04:04;11.20;99.90
8420;DHT22;4247;48.550;8.822;2023-03-08T16:06:32;11.10;99.90
8420;DHT22;4247;48.550;8.822;2023-03-08T16:08:59;11.10;99.90
8420;DHT22;4247;48.550;8.822;2023-03-08T16:11:26;11.00;99.90
8420;DHT22;4247;48.550;8.822;2023-03-08T16:13:53;10.90;99.90
8420;DHT22;4247;48.550;8.822;2023-03-08T16:16:21;10.90;99.90
8420;DHT22;4247;48.550;8.822;2023-03-08T16:18:52;10.80;99.90
8420;DHT22;4247;48.550;8.822;2023-03-08T16:21:19;10.70;99.90
8420;DHT22;4247;48.550;8.822;2023-03-08T16:23:47;10.60;99.90
8420;DHT22;4247;48.550;8.822;2023-03-08T16:26:16;10.50;99.90
8420;DHT22;4247;48.550;8.822;2023-03-08T16:28:44;10.30;99.90
8420;DHT22;4247;48.550;8.822;2023-03-08T16:31:13;10.30;99.90
8420;DHT22;4247;48.550;8.822;2023-03-08T16:33:43;10.20;99.90
8420;DHT22;4247;48.550;8.822;2023-03-08T16:36:10;10.20;99.90
8420;DHT22;4247;48.550;8.822;2023-03-08T16:38:38;10.20;99.90
8420;DHT22;4247;48.550;8.822;2023-03-08T16:41:06;10.20;99.90